Terminal Aerodrome Forecast
Issued by NWS

Home | Current Version | Previous Version | Graphics & Text | Print | Product List | Glossary On
Versions: 1 2 3 4 5 6 7 8 9 10 11 12 13 14 15 16 17 18 19 20
000
FTUS43 KGRB 182000 AAA
TAFCWA
TAF AMD
KCWA 182039Z 1821/1918 27012G20KT P6SM -SN SCT015 BKN025
     FM190000 25009G15KT P6SM -SN SCT025 BKN030
     FM190500 22005KT P6SM -SN BKN035 BKN100
     FM190900 19005KT 5SM -SN BKN025 OVC040
      TEMPO 1910/1914 1 1/2SM -SN
     FM191600 26010G15KT P6SM -SN BKN035 BKN050=

USA.gov is the U.S. government's official web portal to all federal, state and local government web resources and services.